Time;durP1;ratioP1;P1;durP2;ratioP2;P2;SDS_P1;SDS_P2;PMS_P1;PMS_P2;Temp;Humidity;BMP_temperature;BMP_pressure;BME280_temperature;BME280_humidity;BME280_pressure;Samples;Min_cycle;Max_cycle;Signal;HPM_P1;HPM_P2
2023/09/30 00:00:07;;;;;;;8.40;3.60;;;;;;;;;;5041430;28;20066;-78
2023/09/30 00:02:33;;;;;;;10.73;4.13;;;;;;;;;;5058587;28;20484;-78
2023/09/30 00:04:58;;;;;;;7.65;3.90;;;;;;;;;;5060055;28;20020;-78
2023/09/30 00:07:23;;;;;;;9.75;3.95;;;;;;;;;;5060089;28;20021;-78
2023/09/30 00:09:50;;;;;;;10.50;4.10;;;;;;;;;;5060948;28;20021;-78
2023/09/30 00:12:16;;;;;;;8.38;3.88;;;;;;;;;;5049499;28;20392;-78
2023/09/30 00:14:41;;;;;;;10.15;4.13;;;;;;;;;;5060415;28;20020;-78
2023/09/30 00:17:06;;;;;;;7.68;3.53;;;;;;;;;;5047796;28;20020;-79
2023/09/30 00:19:33;;;;;;;9.60;4.28;;;;;;;;;;5069367;28;20032;-78
2023/09/30 00:21:59;;;;;;;10.00;3.85;;;;;;;;;;5062697;28;20043;-78
2023/09/30 00:24:25;;;;;;;8.60;3.65;;;;;;;;;;5050419;28;20033;-78
2023/09/30 00:26:50;;;;;;;7.82;3.92;;;;;;;;;;5049752;28;20098;-78
2023/09/30 00:29:16;;;;;;;9.27;4.53;;;;;;;;;;5069803;28;20032;-78
2023/09/30 00:31:41;;;;;;;7.32;4.20;;;;;;;;;;5064712;28;20051;-78
2023/09/30 00:34:06;;;;;;;9.05;4.60;;;;;;;;;;5058615;28;20036;-78
2023/09/30 00:36:32;;;;;;;8.75;4.70;;;;;;;;;;5045386;28;20046;-78
2023/09/30 00:38:57;;;;;;;8.20;4.70;;;;;;;;;;5063088;28;20477;-86
2023/09/30 00:41:23;;;;;;;7.88;4.95;;;;;;;;;;5059946;28;20070;-85
2023/09/30 00:43:48;;;;;;;8.60;4.38;;;;;;;;;;5043685;28;20032;-86
2023/09/30 00:46:29;;;;;;;8.57;4.50;;;;;;;;;;5040714;28;20073;-85
2023/09/30 00:48:56;;;;;;;7.75;4.40;;;;;;;;;;5061493;28;20039;-85
2023/09/30 00:51:22;;;;;;;12.00;5.00;;;;;;;;;;5062690;28;20099;-86
2023/09/30 00:53:49;;;;;;;10.48;4.82;;;;;;;;;;5062282;28;20029;-86
2023/09/30 00:56:16;;;;;;;8.95;4.35;;;;;;;;;;5043818;28;20236;-85
2023/09/30 00:58:41;;;;;;;9.90;4.90;;;;;;;;;;5062442;28;20035;-86
2023/09/30 01:01:07;;;;;;;8.38;4.35;;;;;;;;;;5056339;28;20024;-79
2023/09/30 01:03:34;;;;;;;9.18;4.38;;;;;;;;;;5059147;28;20193;-85
2023/09/30 01:05:59;;;;;;;9.18;4.40;;;;;;;;;;5059969;28;20486;-86
2023/09/30 01:08:25;;;;;;;7.93;4.30;;;;;;;;;;5042129;28;20024;-86
2023/09/30 01:10:51;;;;;;;10.45;4.72;;;;;;;;;;5059536;28;20048;-84
2023/09/30 01:13:16;;;;;;;9.75;4.78;;;;;;;;;;5061643;28;20170;-75
2023/09/30 01:15:41;;;;;;;9.25;5.07;;;;;;;;;;5062603;28;20476;-78
2023/09/30 01:18:07;;;;;;;8.65;4.47;;;;;;;;;;5059240;28;20396;-75
2023/09/30 01:20:32;;;;;;;12.00;4.53;;;;;;;;;;5063822;28;20362;-77
2023/09/30 01:22:58;;;;;;;10.50;5.13;;;;;;;;;;5049155;28;20033;-75
2023/09/30 01:25:24;;;;;;;8.35;4.80;;;;;;;;;;5069063;28;20032;-75
2023/09/30 01:27:54;;;;;;;9.90;4.95;;;;;;;;;;5062533;28;20555;-74
2023/09/30 01:30:19;;;;;;;7.65;4.55;;;;;;;;;;5044634;28;20020;-75
2023/09/30 01:32:45;;;;;;;8.38;5.07;;;;;;;;;;5059959;28;20097;-74
2023/09/30 01:35:10;;;;;;;10.43;5.28;;;;;;;;;;5060471;28;20029;-77
2023/09/30 01:37:36;;;;;;;9.32;5.03;;;;;;;;;;5058337;28;20109;-74
2023/09/30 01:40:03;;;;;;;9.45;4.80;;;;;;;;;;5061268;28;20067;-77
2023/09/30 01:42:29;;;;;;;9.18;4.80;;;;;;;;;;5047384;28;20043;-76
2023/09/30 01:44:54;;;;;;;9.45;5.03;;;;;;;;;;5063115;28;20484;-78
2023/09/30 01:47:19;;;;;;;10.18;5.50;;;;;;;;;;5064427;28;20024;-76
2023/09/30 01:49:45;;;;;;;8.55;5.38;;;;;;;;;;5068280;28;20071;-76
2023/09/30 01:52:10;;;;;;;9.73;5.38;;;;;;;;;;5049942;28;20036;-76
2023/09/30 01:54:36;;;;;;;9.90;5.20;;;;;;;;;;5064951;28;20503;-77
2023/09/30 01:57:02;;;;;;;11.35;5.45;;;;;;;;;;5046356;28;20173;-75
2023/09/30 01:59:28;;;;;;;10.00;5.72;;;;;;;;;;5066620;28;20039;-75
2023/09/30 02:01:54;;;;;;;10.65;5.40;;;;;;;;;;5064383;28;20021;-76
2023/09/30 02:04:19;;;;;;;9.85;5.60;;;;;;;;;;5065708;28;20040;-76
2023/09/30 02:06:44;;;;;;;9.73;5.18;;;;;;;;;;5042678;28;20112;-75
2023/09/30 02:09:10;;;;;;;10.95;5.55;;;;;;;;;;5045739;28;20085;-75
2023/09/30 02:11:36;;;;;;;11.15;5.25;;;;;;;;;;5068049;28;20058;-77
2023/09/30 02:14:02;;;;;;;9.55;5.25;;;;;;;;;;5052030;28;20062;-76
2023/09/30 02:16:27;;;;;;;9.43;5.50;;;;;;;;;;5063387;28;20032;-75
2023/09/30 02:18:53;;;;;;;10.32;5.60;;;;;;;;;;5066000;28;20025;-76
2023/09/30 02:21:19;;;;;;;9.43;6.10;;;;;;;;;;5045568;28;20028;-76
2023/09/30 02:23:48;;;;;;;10.27;5.90;;;;;;;;;;5060607;28;20384;-76
2023/09/30 02:26:14;;;;;;;11.18;5.57;;;;;;;;;;5065083;28;20024;-76
2023/09/30 02:28:40;;;;;;;10.40;5.68;;;;;;;;;;5054075;28;20522;-75
2023/09/30 02:31:07;;;;;;;10.15;6.30;;;;;;;;;;5065769;28;20103;-76
2023/09/30 02:33:35;;;;;;;10.80;5.63;;;;;;;;;;5065575;28;20480;-77
2023/09/30 02:36:01;;;;;;;9.75;5.75;;;;;;;;;;5064652;28;20043;-78
2023/09/30 02:38:26;;;;;;;10.75;5.72;;;;;;;;;;5047923;28;20487;-77
2023/09/30 02:40:51;;;;;;;10.77;6.10;;;;;;;;;;5064275;28;20384;-77
2023/09/30 02:43:17;;;;;;;9.00;5.80;;;;;;;;;;5059696;28;20033;-77
2023/09/30 02:45:43;;;;;;;10.25;5.95;;;;;;;;;;5048480;28;20024;-77
2023/09/30 02:48:08;;;;;;;9.40;5.82;;;;;;;;;;5063107;28;20032;-78
2023/09/30 02:50:34;;;;;;;9.70;5.88;;;;;;;;;;5041989;28;20021;-79
2023/09/30 02:53:00;;;;;;;9.93;5.75;;;;;;;;;;5042578;28;20035;-77
2023/09/30 02:55:25;;;;;;;9.50;5.80;;;;;;;;;;5064322;28;20074;-77
2023/09/30 02:57:50;;;;;;;11.05;6.53;;;;;;;;;;5063557;28;20036;-75
2023/09/30 03:00:32;;;;;;;8.23;5.60;;;;;;;;;;5046207;28;20463;-75
2023/09/30 03:03:01;;;;;;;10.20;5.60;;;;;;;;;;5044944;28;20379;-75
2023/09/30 03:05:27;;;;;;;10.18;6.03;;;;;;;;;;5063845;28;20107;-75
2023/09/30 03:07:54;;;;;;;8.75;5.75;;;;;;;;;;5060531;28;20019;-76
2023/09/30 03:10:20;;;;;;;10.73;6.10;;;;;;;;;;5044732;28;20024;-75
2023/09/30 03:12:48;;;;;;;11.55;5.78;;;;;;;;;;5060900;28;20539;-76
2023/09/30 03:15:14;;;;;;;11.13;5.75;;;;;;;;;;5061851;28;20020;-74
2023/09/30 03:17:41;;;;;;;9.43;5.95;;;;;;;;;;5061313;28;20094;-76
2023/09/30 03:20:11;;;;;;;10.45;6.03;;;;;;;;;;5063612;28;20021;-75
2023/09/30 03:22:36;;;;;;;9.52;5.78;;;;;;;;;;5063167;28;20032;-76
2023/09/30 03:25:02;;;;;;;9.57;5.85;;;;;;;;;;5060325;28;20129;-75
2023/09/30 03:27:27;;;;;;;10.50;6.60;;;;;;;;;;5043200;28;20044;-77
2023/09/30 03:29:53;;;;;;;9.40;6.18;;;;;;;;;;5062212;28;20097;-75
2023/09/30 03:32:18;;;;;;;10.38;6.18;;;;;;;;;;5059552;28;20476;-75
2023/09/30 03:34:46;;;;;;;10.73;5.90;;;;;;;;;;5063842;28;20025;-74
2023/09/30 03:37:11;;;;;;;9.32;6.00;;;;;;;;;;5063949;28;20036;-75
2023/09/30 03:39:37;;;;;;;10.25;5.88;;;;;;;;;;5046131;28;20430;-75
2023/09/30 03:42:03;;;;;;;10.43;5.93;;;;;;;;;;5046340;28;20024;-74
2023/09/30 03:44:29;;;;;;;11.15;6.10;;;;;;;;;;5063805;28;20040;-74
2023/09/30 03:46:54;;;;;;;11.55;6.18;;;;;;;;;;5063001;28;20035;-75
2023/09/30 03:49:20;;;;;;;10.23;6.05;;;;;;;;;;5068263;28;20020;-75
2023/09/30 03:51:46;;;;;;;10.05;6.47;;;;;;;;;;5064642;28;20248;-75
2023/09/30 03:54:11;;;;;;;10.60;6.30;;;;;;;;;;5045435;28;20024;-74
2023/09/30 03:56:38;;;;;;;10.85;6.15;;;;;;;;;;5043393;28;20031;-75
2023/09/30 03:59:04;;;;;;;9.38;6.30;;;;;;;;;;5063651;28;20368;-75
2023/09/30 04:01:30;;;;;;;8.88;6.20;;;;;;;;;;5044860;28;20033;-76
2023/09/30 04:03:56;;;;;;;12.38;6.63;;;;;;;;;;5059266;28;20087;-75
2023/09/30 04:06:21;;;;;;;10.40;6.03;;;;;;;;;;5043053;28;20036;-75
2023/09/30 04:08:47;;;;;;;9.15;6.13;;;;;;;;;;5066411;28;20491;-75
2023/09/30 04:11:17;;;;;;;9.95;5.88;;;;;;;;;;5065780;28;20074;-75
2023/09/30 04:13:43;;;;;;;8.93;5.93;;;;;;;;;;5052612;28;20039;-75
2023/09/30 04:16:09;;;;;;;11.82;6.47;;;;;;;;;;5063028;28;20130;-75
2023/09/30 04:18:34;;;;;;;9.95;6.53;;;;;;;;;;5060824;28;20594;-74
2023/09/30 04:21:00;;;;;;;10.85;6.55;;;;;;;;;;5061736;28;20029;-74
2023/09/30 04:23:25;;;;;;;13.15;6.70;;;;;;;;;;5044505;28;21845;-75
2023/09/30 04:25:50;;;;;;;10.52;5.93;;;;;;;;;;5061080;28;20047;-75
2023/09/30 04:28:20;;;;;;;8.15;5.70;;;;;;;;;;5063117;28;20029;-74
2023/09/30 04:30:50;;;;;;;10.55;6.35;;;;;;;;;;5050043;28;20027;-75
2023/09/30 04:33:17;;;;;;;12.15;6.30;;;;;;;;;;5047911;28;20553;-74
2023/09/30 04:35:44;;;;;;;8.90;5.97;;;;;;;;;;5052866;28;20043;-74
2023/09/30 04:38:10;;;;;;;10.85;6.57;;;;;;;;;;5050950;28;20036;-75
2023/09/30 04:40:35;;;;;;;9.52;6.35;;;;;;;;;;5049828;28;20032;-74
2023/09/30 04:43:01;;;;;;;9.25;6.35;;;;;;;;;;5067530;28;20039;-75
2023/09/30 04:45:27;;;;;;;10.68;5.80;;;;;;;;;;5048353;28;20036;-75
2023/09/30 04:47:56;;;;;;;10.15;6.13;;;;;;;;;;5061491;28;20035;-75
2023/09/30 04:50:22;;;;;;;11.15;6.80;;;;;;;;;;5053015;28;20174;-75
2023/09/30 04:52:48;;;;;;;13.05;6.35;;;;;;;;;;5059889;28;20036;-75
2023/09/30 04:55:16;;;;;;;9.10;5.90;;;;;;;;;;5069394;28;20082;-76
2023/09/30 04:57:46;;;;;;;10.02;6.30;;;;;;;;;;5063161;28;20499;-75
2023/09/30 05:00:17;;;;;;;11.52;6.45;;;;;;;;;;5041264;28;20119;-76
2023/09/30 05:02:46;;;;;;;11.10;6.10;;;;;;;;;;5050698;28;20043;-76
2023/09/30 05:05:11;;;;;;;11.80;6.60;;;;;;;;;;5062046;28;20064;-75
2023/09/30 05:07:37;;;;;;;10.02;6.38;;;;;;;;;;5051194;28;20064;-75
2023/09/30 05:10:10;;;;;;;9.07;5.90;;;;;;;;;;5045225;28;20032;-78
2023/09/30 05:12:35;;;;;;;;;;;;;;;;;;5048423;28;20031;-78
2023/09/30 05:15:01;;;;;;;10.18;5.97;;;;;;;;;;5062329;28;19920;-79
2023/09/30 05:17:28;;;;;;;11.52;6.70;;;;;;;;;;5055478;28;20033;-78
2023/09/30 05:19:53;;;;;;;11.73;6.40;;;;;;;;;;5058338;28;20020;-77
2023/09/30 05:22:23;;;;;;;10.13;5.88;;;;;;;;;;5039981;28;20035;-75
2023/09/30 05:24:49;;;;;;;10.23;6.22;;;;;;;;;;5042345;28;20033;-77
2023/09/30 05:27:14;;;;;;;11.40;6.07;;;;;;;;;;5040633;28;20028;-76
2023/09/30 05:29:40;;;;;;;10.23;6.57;;;;;;;;;;5058841;28;20031;-75
2023/09/30 05:32:06;;;;;;;11.50;6.80;;;;;;;;;;5060219;28;20405;-75
2023/09/30 05:34:32;;;;;;;11.07;6.30;;;;;;;;;;5059723;28;20115;-74
2023/09/30 05:36:58;;;;;;;10.30;6.05;;;;;;;;;;5054057;28;20527;-75
2023/09/30 05:39:25;;;;;;;12.68;6.60;;;;;;;;;;5060012;28;20024;-75
2023/09/30 05:41:50;;;;;;;9.57;6.18;;;;;;;;;;5041520;28;20031;-77
2023/09/30 05:44:16;;;;;;;10.13;6.40;;;;;;;;;;5062582;28;20032;-77
2023/09/30 05:46:43;;;;;;;9.13;6.53;;;;;;;;;;5061242;28;20152;-75
2023/09/30 05:49:13;;;;;;;10.75;6.22;;;;;;;;;;5058525;28;20117;-75
2023/09/30 05:51:39;;;;;;;9.27;6.13;;;;;;;;;;5062066;28;20025;-75
2023/09/30 05:54:05;;;;;;;10.00;6.90;;;;;;;;;;5052750;28;20028;-75
2023/09/30 05:56:30;;;;;;;10.90;6.65;;;;;;;;;;5066063;28;20032;-74
2023/09/30 05:58:56;;;;;;;10.75;6.68;;;;;;;;;;5051404;28;20591;-76
2023/09/30 06:01:22;;;;;;;10.27;6.32;;;;;;;;;;5066552;28;20111;-74
2023/09/30 06:03:47;;;;;;;10.32;6.78;;;;;;;;;;5051342;28;20401;-74
2023/09/30 06:06:13;;;;;;;10.68;6.45;;;;;;;;;;5051868;28;20089;-75
2023/09/30 06:08:39;;;;;;;11.20;6.03;;;;;;;;;;5050769;28;20113;-74
2023/09/30 06:11:04;;;;;;;10.40;6.35;;;;;;;;;;5062346;28;20066;-74
2023/09/30 06:13:32;;;;;;;10.07;6.25;;;;;;;;;;5064774;28;20044;-75
2023/09/30 06:15:58;;;;;;;11.10;6.65;;;;;;;;;;5065238;28;20028;-75
2023/09/30 06:18:23;;;;;;;11.75;6.72;;;;;;;;;;5060961;28;20484;-76
2023/09/30 06:20:50;;;;;;;10.02;6.18;;;;;;;;;;5067255;28;20036;-76
2023/09/30 06:23:16;;;;;;;10.48;6.07;;;;;;;;;;5074222;28;20027;-76
2023/09/30 06:25:42;;;;;;;14.63;7.82;;;;;;;;;;5061239;28;20483;-75
2023/09/30 06:28:08;;;;;;;11.60;6.53;;;;;;;;;;5060851;28;20063;-77
2023/09/30 06:30:33;;;;;;;11.23;6.30;;;;;;;;;;5048825;28;20017;-79
2023/09/30 06:33:04;;;;;;;10.45;6.32;;;;;;;;;;5056264;28;20365;-75
2023/09/30 06:35:33;;;;;;;13.15;6.90;;;;;;;;;;5062293;28;20522;-74
2023/09/30 06:37:59;;;;;;;10.65;6.22;;;;;;;;;;5062663;28;20055;-76
2023/09/30 06:40:24;;;;;;;12.75;7.25;;;;;;;;;;5067040;28;20028;-75
2023/09/30 06:42:49;;;;;;;11.05;6.05;;;;;;;;;;5065819;28;20072;-87
2023/09/30 06:45:15;;;;;;;10.85;6.32;;;;;;;;;;5052582;28;20041;-87
2023/09/30 06:47:41;;;;;;;11.73;6.72;;;;;;;;;;5053711;28;20033;-83
2023/09/30 06:50:12;;;;;;;10.65;6.47;;;;;;;;;;5060147;28;20047;-86
2023/09/30 06:52:40;;;;;;;12.65;6.70;;;;;;;;;;5062658;28;20051;-85
2023/09/30 06:55:07;;;;;;;11.30;6.38;;;;;;;;;;5055557;28;20500;-85
2023/09/30 06:57:34;;;;;;;13.85;6.57;;;;;;;;;;5046924;28;20106;-84
2023/09/30 06:59:59;;;;;;;11.05;6.78;;;;;;;;;;5054808;28;20032;-81
2023/09/30 07:02:24;;;;;;;10.70;6.90;;;;;;;;;;5064239;28;20041;-79
2023/09/30 07:04:50;;;;;;;16.17;7.05;;;;;;;;;;5056855;28;20029;-79
2023/09/30 07:07:15;;;;;;;16.38;8.43;;;;;;;;;;5042325;28;20031;-79
2023/09/30 07:09:40;;;;;;;17.67;7.07;;;;;;;;;;5058617;28;20048;-78
2023/09/30 07:12:06;;;;;;;14.35;7.28;;;;;;;;;;5061322;28;20028;-76
2023/09/30 07:14:31;;;;;;;13.93;6.68;;;;;;;;;;5061136;28;20043;-75
2023/09/30 07:16:57;;;;;;;12.68;7.28;;;;;;;;;;5047140;28;21085;-76
2023/09/30 07:19:23;;;;;;;11.85;7.15;;;;;;;;;;5046278;28;20032;-76
2023/09/30 07:21:48;;;;;;;11.70;7.00;;;;;;;;;;5061028;28;20028;-76
2023/09/30 07:24:14;;;;;;;11.02;6.43;;;;;;;;;;5046117;28;20844;-76
2023/09/30 07:26:40;;;;;;;12.63;7.18;;;;;;;;;;5042108;28;20479;-78
2023/09/30 07:29:05;;;;;;;12.65;7.32;;;;;;;;;;5061248;28;20021;-76
2023/09/30 07:31:35;;;;;;;14.48;7.47;;;;;;;;;;5061802;28;20027;-75
2023/09/30 07:34:00;;;;;;;10.82;6.82;;;;;;;;;;5062741;28;20546;-76
2023/09/30 07:36:25;;;;;;;13.30;7.63;;;;;;;;;;5061661;28;20058;-75
2023/09/30 07:38:51;;;;;;;15.95;8.38;;;;;;;;;;5042689;28;20119;-79
2023/09/30 07:41:17;;;;;;;15.68;8.93;;;;;;;;;;5035615;28;20111;-79
2023/09/30 07:43:42;;;;;;;12.55;7.72;;;;;;;;;;5036297;28;20024;-79
2023/09/30 07:46:08;;;;;;;12.10;7.63;;;;;;;;;;5048048;28;20056;-79
2023/09/30 07:48:35;;;;;;;16.38;8.98;;;;;;;;;;5058564;28;20028;-76
2023/09/30 07:51:00;;;;;;;15.63;9.07;;;;;;;;;;5042943;28;20028;-78
2023/09/30 07:53:26;;;;;;;13.25;8.90;;;;;;;;;;5034476;28;20032;-79
2023/09/30 07:55:52;;;;;;;14.85;9.38;;;;;;;;;;5019118;28;20059;-76
2023/09/30 07:58:17;;;;;;;17.02;9.82;;;;;;;;;;5046105;28;20024;-79
2023/09/30 08:00:43;;;;;;;18.27;9.20;;;;;;;;;;5031683;28;20033;-78
2023/09/30 08:03:08;;;;;;;19.08;9.68;;;;;;;;;;5055015;28;20107;-78
2023/09/30 08:05:33;;;;;;;18.88;9.50;;;;;;;;;;5056353;28;20028;-78
2023/09/30 08:07:59;;;;;;;16.38;9.05;;;;;;;;;;5051781;28;20027;-79
2023/09/30 08:10:24;;;;;;;20.38;9.80;;;;;;;;;;5035403;28;20699;-79
2023/09/30 08:12:49;;;;;;;16.40;9.32;;;;;;;;;;5031598;28;20228;-78
2023/09/30 08:15:15;;;;;;;16.73;9.25;;;;;;;;;;5047574;28;20041;-78
2023/09/30 08:17:41;;;;;;;14.05;9.75;;;;;;;;;;5053124;28;20024;-78
2023/09/30 08:20:11;;;;;;;19.38;10.20;;;;;;;;;;5035039;28;21315;-78
2023/09/30 08:22:36;;;;;;;15.80;9.45;;;;;;;;;;5015100;28;20500;-79
2023/09/30 08:25:02;;;;;;;18.92;8.75;;;;;;;;;;5034427;28;20036;-79
2023/09/30 08:27:27;;;;;;;12.70;8.60;;;;;;;;;;5043263;28;20039;-79
2023/09/30 08:29:53;;;;;;;17.40;9.38;;;;;;;;;;5040942;28;20044;-79
2023/09/30 08:32:18;;;;;;;17.75;9.15;;;;;;;;;;5043024;28;20519;-80
2023/09/30 08:34:43;;;;;;;22.33;9.82;;;;;;;;;;5062410;28;20124;-79
2023/09/30 08:37:09;;;;;;;16.27;8.77;;;;;;;;;;5052003;28;20032;-79
2023/09/30 08:39:40;;;;;;;13.02;8.05;;;;;;;;;;5063207;28;20037;-79
2023/09/30 08:42:09;;;;;;;16.73;10.02;;;;;;;;;;5046854;28;20109;-79
2023/09/30 08:44:38;;;;;;;22.02;9.73;;;;;;;;;;5065043;28;20484;-79
2023/09/30 08:47:04;;;;;;;15.63;8.57;;;;;;;;;;5051109;28;20103;-79
2023/09/30 08:49:31;;;;;;;19.70;10.10;;;;;;;;;;5039395;28;20060;-79
2023/09/30 08:51:58;;;;;;;20.73;10.23;;;;;;;;;;5037162;28;20028;-79
2023/09/30 08:54:25;;;;;;;16.98;9.43;;;;;;;;;;5064415;28;20028;-79
2023/09/30 08:56:50;;;;;;;16.30;8.88;;;;;;;;;;5066497;28;20476;-79
2023/09/30 08:59:16;;;;;;;17.15;10.00;;;;;;;;;;5052520;28;20030;-79
2023/09/30 09:01:43;;;;;;;18.23;9.55;;;;;;;;;;5063285;28;20020;-79
2023/09/30 09:04:09;;;;;;;18.88;9.20;;;;;;;;;;5057752;28;20036;-79
2023/09/30 09:06:34;;;;;;;17.83;9.15;;;;;;;;;;5068813;28;20036;-79
2023/09/30 09:09:22;;;;;;;17.35;9.05;;;;;;;;;;5071923;28;20048;-78
2023/09/30 09:11:48;;;;;;;20.00;9.40;;;;;;;;;;5055784;28;20031;-78
2023/09/30 09:14:14;;;;;;;18.23;9.60;;;;;;;;;;5069430;28;20466;-78
2023/09/30 09:16:52;;;;;;;22.05;9.13;;;;;;;;;;5050673;28;20448;-79
2023/09/30 09:19:18;;;;;;;18.90;9.52;;;;;;;;;;5059874;28;20036;-79
2023/09/30 09:21:57;;;;;;;21.67;9.20;;;;;;;;;;5056319;28;20021;-79
2023/09/30 09:24:33;;;;;;;16.13;8.90;;;;;;;;;;5041685;28;20462;-78
2023/09/30 09:27:10;;;;;;;16.50;8.65;;;;;;;;;;5050892;28;20074;-79
2023/09/30 09:29:36;;;;;;;16.40;7.55;;;;;;;;;;5043991;28;20037;-79
2023/09/30 09:32:13;;;;;;;19.20;8.43;;;;;;;;;;5062150;28;20120;-79
2023/09/30 09:34:39;;;;;;;14.95;8.30;;;;;;;;;;5042032;28;20135;-79
2023/09/30 09:37:19;;;;;;;15.63;8.23;;;;;;;;;;5070581;28;20032;-79
2023/09/30 09:39:56;;;;;;;20.92;9.57;;;;;;;;;;5062854;28;20064;-79
2023/09/30 09:42:29;;;;;;;15.45;8.27;;;;;;;;;;5059380;28;20032;-79
2023/09/30 09:44:57;;;;;;;21.08;8.00;;;;;;;;;;5061147;28;20020;-79
2023/09/30 09:47:22;;;;;;;17.58;7.85;;;;;;;;;;5047592;28;20043;-79
2023/09/30 09:49:49;;;;;;;17.45;8.57;;;;;;;;;;5055091;28;20407;-79
2023/09/30 09:52:17;;;;;;;15.05;7.78;;;;;;;;;;5059924;28;20024;-79
2023/09/30 09:54:44;;;;;;;16.10;7.47;;;;;;;;;;5062706;28;20045;-79
2023/09/30 09:57:11;;;;;;;16.80;8.18;;;;;;;;;;5058730;28;20039;-78
2023/09/30 09:59:36;;;;;;;14.68;7.00;;;;;;;;;;5064019;28;20073;-79
2023/09/30 10:02:14;;;;;;;14.48;7.45;;;;;;;;;;5032678;28;20028;-79
2023/09/30 10:04:43;;;;;;;13.93;6.93;;;;;;;;;;5061373;28;20028;-79
2023/09/30 10:07:42;;;;;;;15.27;7.60;;;;;;;;;;5060158;28;20439;-79
2023/09/30 10:10:13;;;;;;;13.65;6.63;;;;;;;;;;5008951;28;20068;-79
2023/09/30 10:12:39;;;;;;;13.50;6.95;;;;;;;;;;5040513;28;20013;-79
2023/09/30 10:15:23;;;;;;;17.45;7.50;;;;;;;;;;5055324;28;20032;-79
2023/09/30 10:18:03;;;;;;;16.08;7.35;;;;;;;;;;5046855;28;20070;-79
2023/09/30 10:20:30;;;;;;;13.68;6.03;;;;;;;;;;5039280;28;20047;-79
2023/09/30 10:23:18;;;;;;;15.25;6.15;;;;;;;;;;5058439;28;20028;-79
2023/09/30 10:25:51;;;;;;;15.55;6.40;;;;;;;;;;5040689;28;20812;-79
2023/09/30 10:28:39;;;;;;;18.83;7.95;;;;;;;;;;5058261;28;20077;-79
2023/09/30 10:31:24;;;;;;;13.30;6.78;;;;;;;;;;5052693;28;20028;-79
2023/09/30 10:34:02;;;;;;;14.85;6.80;;;;;;;;;;5059661;28;20073;-79
2023/09/30 10:36:29;;;;;;;16.13;6.55;;;;;;;;;;5050316;28;20388;-79
2023/09/30 10:38:55;;;;;;;12.48;6.40;;;;;;;;;;5061823;28;20082;-81
2023/09/30 10:41:40;;;;;;;18.20;7.18;;;;;;;;;;5062818;28;20039;-82
2023/09/30 10:44:25;;;;;;;14.75;6.82;;;;;;;;;;5047672;28;20040;-79
2023/09/30 10:46:54;;;;;;;14.55;6.78;;;;;;;;;;5050424;28;20060;-82
2023/09/30 10:49:22;;;;;;;11.13;6.40;;;;;;;;;;5052835;28;20473;-82
2023/09/30 10:51:52;;;;;;;14.35;5.97;;;;;;;;;;5054789;28;20117;-82
2023/09/30 10:54:25;;;;;;;11.68;6.03;;;;;;;;;;5043718;28;20032;-81
2023/09/30 10:56:52;;;;;;;9.95;5.55;;;;;;;;;;5055654;28;20825;-82
2023/09/30 10:59:25;;;;;;;15.85;6.65;;;;;;;;;;5054119;28;20423;-82
2023/09/30 11:01:51;;;;;;;14.32;6.70;;;;;;;;;;5028673;28;20470;-82
2023/09/30 11:04:18;;;;;;;16.08;6.30;;;;;;;;;;5036842;28;20477;-82
2023/09/30 11:06:44;;;;;;;16.50;7.03;;;;;;;;;;5053754;28;20096;-82
2023/09/30 11:09:19;;;;;;;15.85;7.43;;;;;;;;;;5031037;28;20036;-81
2023/09/30 11:11:49;;;;;;;12.98;5.95;;;;;;;;;;5055749;28;20949;-83
2023/09/30 11:14:32;;;;;;;14.95;6.05;;;;;;;;;;5059543;28;20556;-82
2023/09/30 11:16:59;;;;;;;13.55;5.68;;;;;;;;;;5055812;28;20035;-81
2023/09/30 11:19:25;;;;;;;14.73;6.10;;;;;;;;;;5052728;28;20122;-82
2023/09/30 11:21:58;;;;;;;14.10;6.20;;;;;;;;;;5052460;28;20061;-82
2023/09/30 11:24:24;;;;;;;16.00;6.40;;;;;;;;;;5056261;28;20095;-82
2023/09/30 11:26:53;;;;;;;16.05;6.40;;;;;;;;;;5052785;28;20063;-83
2023/09/30 11:29:18;;;;;;;16.70;7.30;;;;;;;;;;5051909;28;20056;-82
2023/09/30 11:31:46;;;;;;;15.60;6.00;;;;;;;;;;5026297;28;20052;-80
2023/09/30 11:34:12;;;;;;;13.82;5.82;;;;;;;;;;5058192;28;20094;-82
2023/09/30 11:36:42;;;;;;;15.23;6.45;;;;;;;;;;5039745;28;20373;-82
2023/09/30 11:39:09;;;;;;;15.27;6.20;;;;;;;;;;5056532;28;20114;-79
2023/09/30 11:41:43;;;;;;;16.08;6.38;;;;;;;;;;5056767;28;20028;-80
2023/09/30 11:44:12;;;;;;;16.10;6.53;;;;;;;;;;5034898;28;20040;-80
2023/09/30 11:46:55;;;;;;;19.70;6.45;;;;;;;;;;5056950;28;20036;-80
2023/09/30 11:49:40;;;;;;;14.15;6.60;;;;;;;;;;5057250;28;20096;-81
2023/09/30 11:52:13;;;;;;;13.70;5.68;;;;;;;;;;5063467;28;20024;-81
2023/09/30 11:54:43;;;;;;;16.90;6.50;;;;;;;;;;5055574;28;20388;-80
2023/09/30 11:57:11;;;;;;;12.98;6.43;;;;;;;;;;5043095;28;20404;-80
2023/09/30 11:59:37;;;;;;;16.67;6.95;;;;;;;;;;5056505;28;20043;-80
2023/09/30 12:02:05;;;;;;;17.15;5.50;;;;;;;;;;5039189;28;20617;-80
2023/09/30 12:04:31;;;;;;;13.75;5.05;;;;;;;;;;5052772;28;20032;-80
2023/09/30 12:06:57;;;;;;;11.95;4.82;;;;;;;;;;5039142;28;20036;-80
2023/09/30 12:09:25;;;;;;;11.00;4.78;;;;;;;;;;5045173;28;20032;-80
2023/09/30 12:11:51;;;;;;;13.02;5.05;;;;;;;;;;5037725;28;20028;-80
2023/09/30 12:14:17;;;;;;;13.07;4.57;;;;;;;;;;5037789;28;20097;-81
2023/09/30 12:16:45;;;;;;;11.52;4.70;;;;;;;;;;5050844;28;20431;-80
2023/09/30 12:19:10;;;;;;;11.10;5.05;;;;;;;;;;5008636;28;20112;-80
2023/09/30 12:21:36;;;;;;;15.05;6.85;;;;;;;;;;5022427;28;20106;-80
2023/09/30 12:24:02;;;;;;;13.27;5.97;;;;;;;;;;5033771;28;20078;-80
2023/09/30 12:26:28;;;;;;;12.30;5.28;;;;;;;;;;5030384;28;20100;-80
2023/09/30 12:28:54;;;;;;;10.20;4.85;;;;;;;;;;5052811;28;20046;-80
2023/09/30 12:31:20;;;;;;;13.30;5.70;;;;;;;;;;5032644;28;20035;-80
2023/09/30 12:33:50;;;;;;;12.82;4.85;;;;;;;;;;5047980;28;20031;-79
2023/09/30 12:36:19;;;;;;;12.80;5.75;;;;;;;;;;5045167;28;20040;-80
2023/09/30 12:38:45;;;;;;;12.77;6.13;;;;;;;;;;5016656;28;20115;-80
2023/09/30 12:41:10;;;;;;;12.80;5.18;;;;;;;;;;5034634;28;20030;-80
2023/09/30 12:43:41;;;;;;;11.88;5.00;;;;;;;;;;5029243;28;20043;-80
2023/09/30 12:46:07;;;;;;;11.80;5.15;;;;;;;;;;5028665;28;20274;-80
2023/09/30 12:48:33;;;;;;;13.07;5.35;;;;;;;;;;5044088;28;20115;-80
2023/09/30 12:50:59;;;;;;;13.38;5.80;;;;;;;;;;5047198;28;20375;-79
2023/09/30 12:53:24;;;;;;;12.43;5.00;;;;;;;;;;5053584;28;20028;-79
2023/09/30 12:55:49;;;;;;;10.88;4.20;;;;;;;;;;5052228;28;20539;-79
2023/09/30 12:58:15;;;;;;;15.38;4.65;;;;;;;;;;5037721;28;20024;-80
2023/09/30 13:00:40;;;;;;;12.45;4.50;;;;;;;;;;5034025;28;20021;-80
2023/09/30 13:03:07;;;;;;;11.27;4.85;;;;;;;;;;5051798;28;20061;-80
2023/09/30 13:05:33;;;;;;;14.43;5.50;;;;;;;;;;5059586;28;20056;-80
2023/09/30 13:07:58;;;;;;;11.63;5.00;;;;;;;;;;5061491;28;20052;-81
2023/09/30 13:10:24;;;;;;;14.55;5.25;;;;;;;;;;5060813;28;20035;-81
2023/09/30 13:12:49;;;;;;;15.82;5.30;;;;;;;;;;5061737;28;20407;-82
2023/09/30 13:15:16;;;;;;;14.82;5.70;;;;;;;;;;5044131;28;20040;-82
2023/09/30 13:17:44;;;;;;;11.75;4.97;;;;;;;;;;5060192;28;20409;-80
2023/09/30 13:20:11;;;;;;;13.93;5.20;;;;;;;;;;5055208;28;20032;-77
2023/09/30 13:22:37;;;;;;;13.38;5.15;;;;;;;;;;5041483;28;20564;-79
2023/09/30 13:25:05;;;;;;;10.75;4.80;;;;;;;;;;5038208;28;20061;-79
2023/09/30 13:27:31;;;;;;;11.10;5.38;;;;;;;;;;5050730;28;20504;-79
2023/09/30 13:29:58;;;;;;;10.80;4.80;;;;;;;;;;5056519;28;20040;-79
2023/09/30 13:32:24;;;;;;;12.88;5.00;;;;;;;;;;5040403;28;20031;-80
2023/09/30 13:34:50;;;;;;;12.68;5.10;;;;;;;;;;5056324;28;20032;-79
2023/09/30 13:37:16;;;;;;;12.10;4.90;;;;;;;;;;5033546;28;21294;-79
2023/09/30 13:39:41;;;;;;;10.63;4.85;;;;;;;;;;5046272;28;20029;-79
2023/09/30 13:42:07;;;;;;;14.93;4.28;;;;;;;;;;5049905;28;20025;-80
2023/09/30 13:44:32;;;;;;;11.73;4.55;;;;;;;;;;5036894;28;21686;-81
2023/09/30 13:46:57;;;;;;;8.07;3.85;;;;;;;;;;5031282;28;20585;-82
2023/09/30 13:49:23;;;;;;;10.30;4.40;;;;;;;;;;5038439;28;20035;-81
2023/09/30 13:51:48;;;;;;;10.70;4.63;;;;;;;;;;5037647;28;20025;-81
2023/09/30 13:54:15;;;;;;;10.48;4.32;;;;;;;;;;5055332;28;20049;-81
2023/09/30 13:56:40;;;;;;;8.52;3.67;;;;;;;;;;5045554;28;20404;-82
2023/09/30 13:59:06;;;;;;;10.85;3.63;;;;;;;;;;5052483;28;20032;-82
2023/09/30 14:01:31;;;;;;;8.50;3.55;;;;;;;;;;5047212;28;20059;-81
2023/09/30 14:03:57;;;;;;;10.65;3.80;;;;;;;;;;5053930;28;20450;-80
2023/09/30 14:06:23;;;;;;;8.13;3.25;;;;;;;;;;5037506;28;20037;-81
2023/09/30 14:08:49;;;;;;;7.80;3.45;;;;;;;;;;5029987;28;20468;-78
2023/09/30 14:11:14;;;;;;;8.88;2.78;;;;;;;;;;5052437;28;20111;-78
2023/09/30 14:13:40;;;;;;;7.85;3.40;;;;;;;;;;5038071;28;20553;-79
2023/09/30 14:16:07;;;;;;;7.78;3.70;;;;;;;;;;5035433;28;20526;-79
2023/09/30 14:18:36;;;;;;;5.55;3.30;;;;;;;;;;5033510;28;20032;-81
2023/09/30 14:21:02;;;;;;;7.70;3.80;;;;;;;;;;5032199;28;20050;-80
2023/09/30 14:23:29;;;;;;;10.75;3.65;;;;;;;;;;5035145;28;20029;-82
2023/09/30 14:25:59;;;;;;;8.90;3.05;;;;;;;;;;5035823;28;20020;-81
2023/09/30 14:28:24;;;;;;;9.98;3.65;;;;;;;;;;5046399;28;20024;-81
2023/09/30 14:30:50;;;;;;;7.03;2.97;;;;;;;;;;5035013;28;20377;-81
2023/09/30 14:33:16;;;;;;;7.90;3.22;;;;;;;;;;5011614;28;20039;-81